sensor_id;sensor_type;location;lat;lon;timestamp;P1;durP1;ratioP1;P2;durP2;ratioP2
6665;SDS011;3369;49.906;8.598;2024-01-07T00:01:58;3.53;;;3.10;;
6665;SDS011;3369;49.906;8.598;2024-01-07T00:04:23;4.07;;;3.70;;
6665;SDS011;3369;49.906;8.598;2024-01-07T00:06:49;3.60;;;3.30;;
6665;SDS011;3369;49.906;8.598;2024-01-07T00:09:15;3.70;;;3.40;;
6665;SDS011;3369;49.906;8.598;2024-01-07T00:11:41;3.30;;;3.00;;
6665;SDS011;3369;49.906;8.598;2024-01-07T00:14:07;3.90;;;3.50;;
6665;SDS011;3369;49.906;8.598;2024-01-07T00:16:33;3.73;;;3.20;;
6665;SDS011;3369;49.906;8.598;2024-01-07T00:18:59;3.53;;;3.23;;
6665;SDS011;3369;49.906;8.598;2024-01-07T00:21:25;4.07;;;3.67;;
6665;SDS011;3369;49.906;8.598;2024-01-07T00:23:50;3.20;;;2.90;;
6665;SDS011;3369;49.906;8.598;2024-01-07T00:26:16;3.97;;;3.40;;
6665;SDS011;3369;49.906;8.598;2024-01-07T00:28:41;3.60;;;3.30;;
6665;SDS011;3369;49.906;8.598;2024-01-07T00:31:07;3.40;;;3.10;;
6665;SDS011;3369;49.906;8.598;2024-01-07T00:33:34;3.33;;;3.03;;
6665;SDS011;3369;49.906;8.598;2024-01-07T00:36:00;3.90;;;3.50;;
6665;SDS011;3369;49.906;8.598;2024-01-07T00:38:26;3.53;;;3.23;;
6665;SDS011;3369;49.906;8.598;2024-01-07T00:40:52;3.77;;;3.33;;
6665;SDS011;3369;49.906;8.598;2024-01-07T00:43:17;3.40;;;3.10;;
6665;SDS011;3369;49.906;8.598;2024-01-07T00:45:43;3.50;;;3.20;;
6665;SDS011;3369;49.906;8.598;2024-01-07T00:48:09;4.20;;;3.63;;
6665;SDS011;3369;49.906;8.598;2024-01-07T00:50:35;3.43;;;3.13;;
6665;SDS011;3369;49.906;8.598;2024-01-07T00:53:00;3.70;;;3.40;;
6665;SDS011;3369;49.906;8.598;2024-01-07T00:55:26;3.27;;;2.97;;
6665;SDS011;3369;49.906;8.598;2024-01-07T00:57:51;3.63;;;3.20;;
6665;SDS011;3369;49.906;8.598;2024-01-07T01:00:17;3.13;;;2.90;;
6665;SDS011;3369;49.906;8.598;2024-01-07T01:02:43;2.87;;;2.67;;
6665;SDS011;3369;49.906;8.598;2024-01-07T01:05:09;3.17;;;2.87;;
6665;SDS011;3369;49.906;8.598;2024-01-07T01:07:34;3.33;;;2.90;;
6665;SDS011;3369;49.906;8.598;2024-01-07T01:10:00;3.33;;;2.90;;
6665;SDS011;3369;49.906;8.598;2024-01-07T01:12:25;4.00;;;3.07;;
6665;SDS011;3369;49.906;8.598;2024-01-07T01:14:51;3.40;;;3.10;;
6665;SDS011;3369;49.906;8.598;2024-01-07T01:17:17;3.97;;;2.90;;
6665;SDS011;3369;49.906;8.598;2024-01-07T01:19:42;3.20;;;2.90;;
6665;SDS011;3369;49.906;8.598;2024-01-07T01:22:08;2.80;;;2.60;;
6665;SDS011;3369;49.906;8.598;2024-01-07T01:24:33;3.00;;;2.70;;
6665;SDS011;3369;49.906;8.598;2024-01-07T01:26:59;3.47;;;3.17;;
6665;SDS011;3369;49.906;8.598;2024-01-07T01:29:25;2.80;;;2.50;;
6665;SDS011;3369;49.906;8.598;2024-01-07T01:31:50;3.77;;;3.47;;
6665;SDS011;3369;49.906;8.598;2024-01-07T01:34:16;3.87;;;3.57;;
6665;SDS011;3369;49.906;8.598;2024-01-07T01:36:42;2.97;;;2.70;;
6665;SDS011;3369;49.906;8.598;2024-01-07T01:39:07;3.53;;;3.23;;
6665;SDS011;3369;49.906;8.598;2024-01-07T01:41:33;4.10;;;3.70;;
6665;SDS011;3369;49.906;8.598;2024-01-07T01:43:59;3.37;;;3.07;;
6665;SDS011;3369;49.906;8.598;2024-01-07T01:46:26;3.23;;;2.93;;
6665;SDS011;3369;49.906;8.598;2024-01-07T01:48:54;3.63;;;3.17;;
6665;SDS011;3369;49.906;8.598;2024-01-07T01:51:21;3.57;;;3.27;;
6665;SDS011;3369;49.906;8.598;2024-01-07T01:53:47;3.87;;;3.20;;
6665;SDS011;3369;49.906;8.598;2024-01-07T01:56:16;3.23;;;2.93;;
6665;SDS011;3369;49.906;8.598;2024-01-07T01:58:43;3.37;;;3.07;;
6665;SDS011;3369;49.906;8.598;2024-01-07T02:01:09;3.57;;;3.27;;
6665;SDS011;3369;49.906;8.598;2024-01-07T02:03:35;3.77;;;3.33;;
6665;SDS011;3369;49.906;8.598;2024-01-07T02:06:00;3.80;;;3.30;;
6665;SDS011;3369;49.906;8.598;2024-01-07T02:08:26;3.40;;;3.10;;
6665;SDS011;3369;49.906;8.598;2024-01-07T02:10:52;3.80;;;3.50;;
6665;SDS011;3369;49.906;8.598;2024-01-07T02:13:18;3.40;;;3.10;;
6665;SDS011;3369;49.906;8.598;2024-01-07T02:15:43;3.60;;;3.10;;
6665;SDS011;3369;49.906;8.598;2024-01-07T02:18:09;3.67;;;3.30;;
6665;SDS011;3369;49.906;8.598;2024-01-07T02:20:35;3.43;;;3.13;;
6665;SDS011;3369;49.906;8.598;2024-01-07T02:23:01;3.77;;;3.40;;
6665;SDS011;3369;49.906;8.598;2024-01-07T02:25:27;3.73;;;3.43;;
6665;SDS011;3369;49.906;8.598;2024-01-07T02:27:52;3.73;;;3.33;;
6665;SDS011;3369;49.906;8.598;2024-01-07T02:30:18;3.60;;;3.30;;
6665;SDS011;3369;49.906;8.598;2024-01-07T02:32:44;3.50;;;3.20;;
6665;SDS011;3369;49.906;8.598;2024-01-07T02:35:09;2.97;;;2.70;;
6665;SDS011;3369;49.906;8.598;2024-01-07T02:37:35;3.50;;;3.23;;
6665;SDS011;3369;49.906;8.598;2024-01-07T02:40:01;2.90;;;2.70;;
6665;SDS011;3369;49.906;8.598;2024-01-07T02:42:26;2.73;;;2.53;;
6665;SDS011;3369;49.906;8.598;2024-01-07T02:44:52;3.00;;;2.73;;
6665;SDS011;3369;49.906;8.598;2024-01-07T02:47:17;3.20;;;2.90;;
6665;SDS011;3369;49.906;8.598;2024-01-07T02:49:43;3.07;;;2.80;;
6665;SDS011;3369;49.906;8.598;2024-01-07T02:52:09;3.10;;;2.90;;
6665;SDS011;3369;49.906;8.598;2024-01-07T02:54:34;2.90;;;2.60;;
6665;SDS011;3369;49.906;8.598;2024-01-07T02:57:00;2.67;;;2.47;;
6665;SDS011;3369;49.906;8.598;2024-01-07T02:59:25;2.67;;;2.47;;
6665;SDS011;3369;49.906;8.598;2024-01-07T03:01:51;2.70;;;2.50;;
6665;SDS011;3369;49.906;8.598;2024-01-07T03:04:16;2.40;;;2.20;;
6665;SDS011;3369;49.906;8.598;2024-01-07T03:06:43;2.63;;;2.43;;
6665;SDS011;3369;49.906;8.598;2024-01-07T03:09:08;3.20;;;2.90;;
6665;SDS011;3369;49.906;8.598;2024-01-07T03:11:38;2.70;;;2.50;;
6665;SDS011;3369;49.906;8.598;2024-01-07T03:14:06;2.53;;;2.33;;
6665;SDS011;3369;49.906;8.598;2024-01-07T03:16:31;2.83;;;2.60;;
6665;SDS011;3369;49.906;8.598;2024-01-07T03:18:57;3.20;;;2.90;;
6665;SDS011;3369;49.906;8.598;2024-01-07T03:21:23;3.00;;;2.80;;
6665;SDS011;3369;49.906;8.598;2024-01-07T03:23:49;2.40;;;2.20;;
6665;SDS011;3369;49.906;8.598;2024-01-07T03:26:15;3.03;;;2.40;;
6665;SDS011;3369;49.906;8.598;2024-01-07T03:28:42;3.00;;;2.80;;
6665;SDS011;3369;49.906;8.598;2024-01-07T03:31:08;2.80;;;2.53;;
6665;SDS011;3369;49.906;8.598;2024-01-07T03:33:39;2.77;;;2.57;;
6665;SDS011;3369;49.906;8.598;2024-01-07T03:36:08;2.80;;;2.60;;
6665;SDS011;3369;49.906;8.598;2024-01-07T03:38:38;2.73;;;2.50;;
6665;SDS011;3369;49.906;8.598;2024-01-07T03:41:04;3.20;;;2.90;;
6665;SDS011;3369;49.906;8.598;2024-01-07T03:43:30;3.30;;;3.00;;
6665;SDS011;3369;49.906;8.598;2024-01-07T03:45:56;3.13;;;2.87;;
6665;SDS011;3369;49.906;8.598;2024-01-07T03:48:22;3.23;;;2.93;;
6665;SDS011;3369;49.906;8.598;2024-01-07T03:50:48;3.23;;;2.90;;
6665;SDS011;3369;49.906;8.598;2024-01-07T03:53:14;3.27;;;2.97;;
6665;SDS011;3369;49.906;8.598;2024-01-07T03:55:40;3.17;;;2.87;;
6665;SDS011;3369;49.906;8.598;2024-01-07T03:58:06;3.27;;;2.97;;
6665;SDS011;3369;49.906;8.598;2024-01-07T04:00:32;3.50;;;3.20;;
6665;SDS011;3369;49.906;8.598;2024-01-07T04:02:58;2.70;;;2.50;;
6665;SDS011;3369;49.906;8.598;2024-01-07T04:05:24;2.97;;;2.70;;
6665;SDS011;3369;49.906;8.598;2024-01-07T04:07:50;3.40;;;3.00;;
6665;SDS011;3369;49.906;8.598;2024-01-07T04:10:16;3.70;;;3.33;;
6665;SDS011;3369;49.906;8.598;2024-01-07T04:12:42;3.53;;;3.23;;
6665;SDS011;3369;49.906;8.598;2024-01-07T04:15:08;3.90;;;3.50;;
6665;SDS011;3369;49.906;8.598;2024-01-07T04:17:34;3.53;;;3.10;;
6665;SDS011;3369;49.906;8.598;2024-01-07T04:19:59;3.60;;;3.30;;
6665;SDS011;3369;49.906;8.598;2024-01-07T04:22:25;5.03;;;3.33;;
6665;SDS011;3369;49.906;8.598;2024-01-07T04:24:51;4.53;;;3.60;;
6665;SDS011;3369;49.906;8.598;2024-01-07T04:27:16;3.50;;;3.20;;
6665;SDS011;3369;49.906;8.598;2024-01-07T04:29:42;4.80;;;3.73;;
6665;SDS011;3369;49.906;8.598;2024-01-07T04:32:07;4.87;;;3.90;;
6665;SDS011;3369;49.906;8.598;2024-01-07T04:34:33;3.47;;;3.17;;
6665;SDS011;3369;49.906;8.598;2024-01-07T04:36:58;4.43;;;3.53;;
6665;SDS011;3369;49.906;8.598;2024-01-07T04:39:24;3.50;;;3.13;;
6665;SDS011;3369;49.906;8.598;2024-01-07T04:41:49;4.03;;;3.17;;
6665;SDS011;3369;49.906;8.598;2024-01-07T04:44:15;4.37;;;3.40;;
6665;SDS011;3369;49.906;8.598;2024-01-07T04:46:41;3.87;;;3.50;;
6665;SDS011;3369;49.906;8.598;2024-01-07T04:49:06;4.43;;;4.03;;
6665;SDS011;3369;49.906;8.598;2024-01-07T04:51:32;3.83;;;3.50;;
6665;SDS011;3369;49.906;8.598;2024-01-07T04:53:58;5.50;;;4.20;;
6665;SDS011;3369;49.906;8.598;2024-01-07T04:56:24;6.57;;;5.00;;
6665;SDS011;3369;49.906;8.598;2024-01-07T04:58:49;5.77;;;4.70;;
6665;SDS011;3369;49.906;8.598;2024-01-07T05:01:15;5.63;;;5.03;;
6665;SDS011;3369;49.906;8.598;2024-01-07T05:03:41;5.57;;;4.37;;
6665;SDS011;3369;49.906;8.598;2024-01-07T05:06:09;4.87;;;4.13;;
6665;SDS011;3369;49.906;8.598;2024-01-07T05:08:36;5.63;;;4.20;;
6665;SDS011;3369;49.906;8.598;2024-01-07T05:11:02;5.57;;;4.23;;
6665;SDS011;3369;49.906;8.598;2024-01-07T05:13:28;6.90;;;4.57;;
6665;SDS011;3369;49.906;8.598;2024-01-07T05:15:54;4.80;;;4.30;;
6665;SDS011;3369;49.906;8.598;2024-01-07T05:18:21;6.17;;;4.77;;
6665;SDS011;3369;49.906;8.598;2024-01-07T05:20:47;5.77;;;5.00;;
6665;SDS011;3369;49.906;8.598;2024-01-07T05:23:13;7.27;;;5.67;;
6665;SDS011;3369;49.906;8.598;2024-01-07T05:25:39;6.07;;;4.73;;
6665;SDS011;3369;49.906;8.598;2024-01-07T05:28:04;6.33;;;5.67;;
6665;SDS011;3369;49.906;8.598;2024-01-07T05:30:31;7.70;;;6.80;;
6665;SDS011;3369;49.906;8.598;2024-01-07T05:32:56;8.40;;;6.47;;
6665;SDS011;3369;49.906;8.598;2024-01-07T05:35:22;7.87;;;6.33;;
6665;SDS011;3369;49.906;8.598;2024-01-07T05:37:49;7.30;;;6.10;;
6665;SDS011;3369;49.906;8.598;2024-01-07T05:40:14;9.00;;;6.30;;
6665;SDS011;3369;49.906;8.598;2024-01-07T05:42:40;8.90;;;6.10;;
6665;SDS011;3369;49.906;8.598;2024-01-07T05:45:06;7.07;;;5.67;;
6665;SDS011;3369;49.906;8.598;2024-01-07T05:47:31;7.07;;;6.00;;
6665;SDS011;3369;49.906;8.598;2024-01-07T05:49:57;8.23;;;6.60;;
6665;SDS011;3369;49.906;8.598;2024-01-07T05:52:23;7.27;;;5.93;;
6665;SDS011;3369;49.906;8.598;2024-01-07T05:54:49;8.83;;;6.97;;
6665;SDS011;3369;49.906;8.598;2024-01-07T05:57:14;10.43;;;7.67;;
6665;SDS011;3369;49.906;8.598;2024-01-07T05:59:40;9.87;;;7.77;;
6665;SDS011;3369;49.906;8.598;2024-01-07T06:02:05;10.20;;;8.00;;
6665;SDS011;3369;49.906;8.598;2024-01-07T06:04:31;9.23;;;7.90;;
6665;SDS011;3369;49.906;8.598;2024-01-07T06:06:57;9.17;;;8.03;;
6665;SDS011;3369;49.906;8.598;2024-01-07T06:09:23;10.53;;;7.60;;
6665;SDS011;3369;49.906;8.598;2024-01-07T06:11:50;9.83;;;8.20;;
6665;SDS011;3369;49.906;8.598;2024-01-07T06:14:15;9.70;;;8.23;;
6665;SDS011;3369;49.906;8.598;2024-01-07T06:16:41;9.97;;;8.03;;
6665;SDS011;3369;49.906;8.598;2024-01-07T06:19:07;10.60;;;7.93;;
6665;SDS011;3369;49.906;8.598;2024-01-07T06:21:33;10.17;;;7.50;;
6665;SDS011;3369;49.906;8.598;2024-01-07T06:23:58;8.73;;;7.07;;
6665;SDS011;3369;49.906;8.598;2024-01-07T06:26:24;8.17;;;6.70;;
6665;SDS011;3369;49.906;8.598;2024-01-07T06:28:49;8.93;;;7.13;;
6665;SDS011;3369;49.906;8.598;2024-01-07T06:31:15;11.43;;;6.87;;
6665;SDS011;3369;49.906;8.598;2024-01-07T06:33:41;7.90;;;6.17;;
6665;SDS011;3369;49.906;8.598;2024-01-07T06:36:06;7.63;;;6.27;;
6665;SDS011;3369;49.906;8.598;2024-01-07T06:38:33;6.53;;;5.80;;
6665;SDS011;3369;49.906;8.598;2024-01-07T06:40:59;8.30;;;6.50;;
6665;SDS011;3369;49.906;8.598;2024-01-07T06:43:29;8.40;;;6.67;;
6665;SDS011;3369;49.906;8.598;2024-01-07T06:45:55;8.20;;;6.40;;
6665;SDS011;3369;49.906;8.598;2024-01-07T06:48:21;6.90;;;6.00;;
6665;SDS011;3369;49.906;8.598;2024-01-07T06:50:46;6.53;;;5.93;;
6665;SDS011;3369;49.906;8.598;2024-01-07T06:53:12;7.97;;;7.17;;
6665;SDS011;3369;49.906;8.598;2024-01-07T06:55:37;7.70;;;6.40;;
6665;SDS011;3369;49.906;8.598;2024-01-07T06:58:03;8.00;;;6.17;;
6665;SDS011;3369;49.906;8.598;2024-01-07T07:00:29;7.50;;;6.30;;
6665;SDS011;3369;49.906;8.598;2024-01-07T07:02:54;7.53;;;6.23;;
6665;SDS011;3369;49.906;8.598;2024-01-07T07:05:20;7.53;;;6.40;;
6665;SDS011;3369;49.906;8.598;2024-01-07T07:07:45;8.40;;;6.40;;
6665;SDS011;3369;49.906;8.598;2024-01-07T07:10:11;8.93;;;7.10;;
6665;SDS011;3369;49.906;8.598;2024-01-07T07:12:37;7.40;;;6.43;;
6665;SDS011;3369;49.906;8.598;2024-01-07T07:15:02;8.40;;;6.80;;
6665;SDS011;3369;49.906;8.598;2024-01-07T07:17:28;10.30;;;7.53;;
6665;SDS011;3369;49.906;8.598;2024-01-07T07:19:54;10.33;;;7.10;;
6665;SDS011;3369;49.906;8.598;2024-01-07T07:22:19;9.43;;;7.90;;
6665;SDS011;3369;49.906;8.598;2024-01-07T07:24:45;8.93;;;7.00;;
6665;SDS011;3369;49.906;8.598;2024-01-07T07:27:10;9.03;;;7.40;;
6665;SDS011;3369;49.906;8.598;2024-01-07T07:29:36;11.13;;;7.97;;
6665;SDS011;3369;49.906;8.598;2024-01-07T07:32:01;9.03;;;7.13;;
6665;SDS011;3369;49.906;8.598;2024-01-07T07:34:27;9.77;;;7.93;;
6665;SDS011;3369;49.906;8.598;2024-01-07T07:36:53;8.83;;;7.07;;
6665;SDS011;3369;49.906;8.598;2024-01-07T07:39:18;9.43;;;7.80;;
6665;SDS011;3369;49.906;8.598;2024-01-07T07:41:45;11.40;;;8.57;;
6665;SDS011;3369;49.906;8.598;2024-01-07T07:44:10;11.43;;;7.77;;
6665;SDS011;3369;49.906;8.598;2024-01-07T07:46:36;9.33;;;7.27;;
6665;SDS011;3369;49.906;8.598;2024-01-07T07:49:01;7.80;;;6.97;;
6665;SDS011;3369;49.906;8.598;2024-01-07T07:51:27;7.60;;;6.50;;
6665;SDS011;3369;49.906;8.598;2024-01-07T07:53:53;6.70;;;5.73;;
6665;SDS011;3369;49.906;8.598;2024-01-07T07:56:18;9.17;;;6.57;;
6665;SDS011;3369;49.906;8.598;2024-01-07T07:58:44;7.70;;;6.37;;
6665;SDS011;3369;49.906;8.598;2024-01-07T08:01:09;9.53;;;6.17;;
6665;SDS011;3369;49.906;8.598;2024-01-07T08:03:35;7.27;;;6.43;;
6665;SDS011;3369;49.906;8.598;2024-01-07T08:06:01;9.10;;;6.53;;
6665;SDS011;3369;49.906;8.598;2024-01-07T08:08:27;6.97;;;5.67;;
6665;SDS011;3369;49.906;8.598;2024-01-07T08:10:53;6.47;;;5.57;;
6665;SDS011;3369;49.906;8.598;2024-01-07T08:13:19;9.17;;;7.37;;
6665;SDS011;3369;49.906;8.598;2024-01-07T08:15:44;8.53;;;5.87;;
6665;SDS011;3369;49.906;8.598;2024-01-07T08:18:10;8.23;;;6.23;;
6665;SDS011;3369;49.906;8.598;2024-01-07T08:20:35;6.93;;;5.50;;
6665;SDS011;3369;49.906;8.598;2024-01-07T08:23:01;6.10;;;5.43;;
6665;SDS011;3369;49.906;8.598;2024-01-07T08:25:27;7.03;;;5.40;;
6665;SDS011;3369;49.906;8.598;2024-01-07T08:27:54;7.90;;;5.80;;
6665;SDS011;3369;49.906;8.598;2024-01-07T08:30:19;6.70;;;5.40;;
6665;SDS011;3369;49.906;8.598;2024-01-07T08:32:45;6.13;;;5.20;;
6665;SDS011;3369;49.906;8.598;2024-01-07T08:35:10;6.03;;;5.43;;
6665;SDS011;3369;49.906;8.598;2024-01-07T08:37:36;7.17;;;5.63;;
6665;SDS011;3369;49.906;8.598;2024-01-07T08:40:02;6.97;;;6.28;;
6665;SDS011;3369;49.906;8.598;2024-01-07T08:42:27;6.40;;;5.80;;
6665;SDS011;3369;49.906;8.598;2024-01-07T08:44:55;6.17;;;5.60;;
6665;SDS011;3369;49.906;8.598;2024-01-07T08:47:21;5.60;;;5.10;;
6665;SDS011;3369;49.906;8.598;2024-01-07T08:49:47;5.43;;;4.93;;
6665;SDS011;3369;49.906;8.598;2024-01-07T08:52:12;5.70;;;5.20;;
6665;SDS011;3369;49.906;8.598;2024-01-07T08:54:38;5.72;;;5.22;;
6665;SDS011;3369;49.906;8.598;2024-01-07T08:57:03;5.83;;;5.33;;
6665;SDS011;3369;49.906;8.598;2024-01-07T08:59:29;5.47;;;4.97;;
6665;SDS011;3369;49.906;8.598;2024-01-07T09:01:54;5.68;;;5.05;;
6665;SDS011;3369;49.906;8.598;2024-01-07T09:04:20;5.65;;;5.15;;
6665;SDS011;3369;49.906;8.598;2024-01-07T09:06:46;5.43;;;4.93;;
6665;SDS011;3369;49.906;8.598;2024-01-07T09:09:12;5.70;;;5.20;;
6665;SDS011;3369;49.906;8.598;2024-01-07T09:11:38;6.30;;;5.70;;
6665;SDS011;3369;49.906;8.598;2024-01-07T09:14:03;5.38;;;4.88;;
6665;SDS011;3369;49.906;8.598;2024-01-07T09:16:29;5.60;;;5.10;;
6665;SDS011;3369;49.906;8.598;2024-01-07T09:18:55;5.73;;;5.17;;
6665;SDS011;3369;49.906;8.598;2024-01-07T09:21:20;5.27;;;4.77;;
6665;SDS011;3369;49.906;8.598;2024-01-07T09:23:48;5.90;;;5.22;;
6665;SDS011;3369;49.906;8.598;2024-01-07T09:26:14;5.47;;;4.97;;
6665;SDS011;3369;49.906;8.598;2024-01-07T09:28:39;6.03;;;5.43;;
6665;SDS011;3369;49.906;8.598;2024-01-07T09:31:05;5.30;;;4.80;;
6665;SDS011;3369;49.906;8.598;2024-01-07T09:33:31;5.60;;;5.10;;
6665;SDS011;3369;49.906;8.598;2024-01-07T09:35:56;5.03;;;4.63;;
6665;SDS011;3369;49.906;8.598;2024-01-07T09:38:22;5.65;;;5.15;;
6665;SDS011;3369;49.906;8.598;2024-01-07T09:40:49;5.45;;;4.95;;
6665;SDS011;3369;49.906;8.598;2024-01-07T09:43:15;5.00;;;4.60;;
6665;SDS011;3369;49.906;8.598;2024-01-07T09:45:41;5.40;;;4.90;;
6665;SDS011;3369;49.906;8.598;2024-01-07T09:48:10;5.63;;;5.13;;
6665;SDS011;3369;49.906;8.598;2024-01-07T09:50:36;5.25;;;4.75;;
6665;SDS011;3369;49.906;8.598;2024-01-07T09:53:02;5.53;;;5.03;;
6665;SDS011;3369;49.906;8.598;2024-01-07T09:55:33;5.40;;;4.90;;
6665;SDS011;3369;49.906;8.598;2024-01-07T09:58:02;5.33;;;4.70;;
6665;SDS011;3369;49.906;8.598;2024-01-07T10:00:28;5.22;;;4.78;;
6665;SDS011;3369;49.906;8.598;2024-01-07T10:02:55;4.90;;;4.50;;
6665;SDS011;3369;49.906;8.598;2024-01-07T10:05:20;5.83;;;5.27;;
6665;SDS011;3369;49.906;8.598;2024-01-07T10:07:46;5.67;;;5.17;;
6665;SDS011;3369;49.906;8.598;2024-01-07T10:10:15;5.32;;;4.93;;
6665;SDS011;3369;49.906;8.598;2024-01-07T10:12:43;5.47;;;4.97;;
6665;SDS011;3369;49.906;8.598;2024-01-07T10:15:11;5.65;;;5.13;;
6665;SDS011;3369;49.906;8.598;2024-01-07T10:17:36;6.50;;;5.90;;
6665;SDS011;3369;49.906;8.598;2024-01-07T10:20:04;5.53;;;5.03;;
6665;SDS011;3369;49.906;8.598;2024-01-07T10:22:30;5.60;;;5.10;;
6665;SDS011;3369;49.906;8.598;2024-01-07T10:24:56;5.60;;;5.10;;
6665;SDS011;3369;49.906;8.598;2024-01-07T10:27:23;6.10;;;5.50;;
6665;SDS011;3369;49.906;8.598;2024-01-07T10:29:48;6.28;;;5.68;;
6665;SDS011;3369;49.906;8.598;2024-01-07T10:32:15;6.07;;;5.57;;
6665;SDS011;3369;49.906;8.598;2024-01-07T10:34:45;6.22;;;5.63;;
6665;SDS011;3369;49.906;8.598;2024-01-07T10:37:12;6.10;;;5.50;;
6665;SDS011;3369;49.906;8.598;2024-01-07T10:39:38;6.13;;;5.63;;
6665;SDS011;3369;49.906;8.598;2024-01-07T10:42:03;6.45;;;5.85;;
6665;SDS011;3369;49.906;8.598;2024-01-07T10:44:30;6.88;;;6.18;;
6665;SDS011;3369;49.906;8.598;2024-01-07T10:46:56;6.13;;;5.60;;
6665;SDS011;3369;49.906;8.598;2024-01-07T10:49:24;6.72;;;6.10;;
6665;SDS011;3369;49.906;8.598;2024-01-07T10:52:02;5.70;;;5.20;;
6665;SDS011;3369;49.906;8.598;2024-01-07T10:54:32;7.10;;;6.45;;
6665;SDS011;3369;49.906;8.598;2024-01-07T10:57:00;6.90;;;6.30;;
6665;SDS011;3369;49.906;8.598;2024-01-07T10:59:26;6.75;;;6.15;;
6665;SDS011;3369;49.906;8.598;2024-01-07T11:01:53;16.08;;;9.93;;
6665;SDS011;3369;49.906;8.598;2024-01-07T11:07:17;6.95;;;6.30;;
6665;SDS011;3369;49.906;8.598;2024-01-07T11:09:55;6.83;;;6.23;;
6665;SDS011;3369;49.906;8.598;2024-01-07T11:12:29;6.88;;;6.28;;
6665;SDS011;3369;49.906;8.598;2024-01-07T11:14:56;7.72;;;7.03;;
6665;SDS011;3369;49.906;8.598;2024-01-07T11:17:43;6.90;;;6.28;;
6665;SDS011;3369;49.906;8.598;2024-01-07T11:20:21;7.68;;;6.82;;
6665;SDS011;3369;49.906;8.598;2024-01-07T11:22:47;7.22;;;6.53;;
6665;SDS011;3369;49.906;8.598;2024-01-07T11:25:32;7.22;;;6.53;;
6665;SDS011;3369;49.906;8.598;2024-01-07T11:27:58;7.28;;;6.57;;
6665;SDS011;3369;49.906;8.598;2024-01-07T11:30:26;7.20;;;6.50;;
6665;SDS011;3369;49.906;8.598;2024-01-07T11:32:58;7.35;;;6.65;;
6665;SDS011;3369;49.906;8.598;2024-01-07T11:38:18;7.60;;;6.90;;
6665;SDS011;3369;49.906;8.598;2024-01-07T11:40:44;7.50;;;6.80;;
6665;SDS011;3369;49.906;8.598;2024-01-07T11:43:11;7.30;;;6.60;;
6665;SDS011;3369;49.906;8.598;2024-01-07T11:45:36;7.03;;;6.33;;
6665;SDS011;3369;49.906;8.598;2024-01-07T11:48:02;6.87;;;6.23;;
6665;SDS011;3369;49.906;8.598;2024-01-07T11:50:29;6.67;;;5.97;;
6665;SDS011;3369;49.906;8.598;2024-01-07T11:52:55;6.63;;;5.70;;
6665;SDS011;3369;49.906;8.598;2024-01-07T11:55:20;6.10;;;5.50;;
6665;SDS011;3369;49.906;8.598;2024-01-07T11:57:46;6.05;;;5.45;;
6665;SDS011;3369;49.906;8.598;2024-01-07T12:00:12;6.40;;;5.80;;
6665;SDS011;3369;49.906;8.598;2024-01-07T12:02:38;6.65;;;5.85;;
6665;SDS011;3369;49.906;8.598;2024-01-07T12:05:04;7.07;;;6.37;;
6665;SDS011;3369;49.906;8.598;2024-01-07T12:07:29;6.15;;;5.55;;
6665;SDS011;3369;49.906;8.598;2024-01-07T12:09:58;6.60;;;5.90;;
6665;SDS011;3369;49.906;8.598;2024-01-07T12:12:24;6.78;;;6.15;;
6665;SDS011;3369;49.906;8.598;2024-01-07T12:14:50;7.28;;;6.32;;
6665;SDS011;3369;49.906;8.598;2024-01-07T12:17:19;6.93;;;6.22;;
6665;SDS011;3369;49.906;8.598;2024-01-07T12:19:45;6.50;;;5.85;;
6665;SDS011;3369;49.906;8.598;2024-01-07T12:22:10;7.00;;;6.22;;
6665;SDS011;3369;49.906;8.598;2024-01-07T12:24:36;7.43;;;6.63;;
6665;SDS011;3369;49.906;8.598;2024-01-07T12:27:05;7.63;;;6.83;;
6665;SDS011;3369;49.906;8.598;2024-01-07T12:29:31;7.70;;;6.65;;
6665;SDS011;3369;49.906;8.598;2024-01-07T12:31:56;7.70;;;6.90;;
6665;SDS011;3369;49.906;8.598;2024-01-07T12:34:22;8.07;;;7.10;;
6665;SDS011;3369;49.906;8.598;2024-01-07T12:36:50;7.43;;;6.72;;
6665;SDS011;3369;49.906;8.598;2024-01-07T12:39:19;7.20;;;6.50;;
6665;SDS011;3369;49.906;8.598;2024-01-07T12:41:45;7.05;;;6.35;;
6665;SDS011;3369;49.906;8.598;2024-01-07T12:44:12;7.68;;;6.97;;
6665;SDS011;3369;49.906;8.598;2024-01-07T12:46:38;7.53;;;6.70;;
6665;SDS011;3369;49.906;8.598;2024-01-07T12:49:03;7.33;;;6.60;;
6665;SDS011;3369;49.906;8.598;2024-01-07T12:51:29;7.15;;;6.43;;
6665;SDS011;3369;49.906;8.598;2024-01-07T12:53:55;8.38;;;6.82;;
6665;SDS011;3369;49.906;8.598;2024-01-07T12:56:21;7.73;;;6.83;;
6665;SDS011;3369;49.906;8.598;2024-01-07T12:58:47;7.37;;;6.30;;
6665;SDS011;3369;49.906;8.598;2024-01-07T13:01:13;7.85;;;6.32;;
6665;SDS011;3369;49.906;8.598;2024-01-07T13:03:39;8.60;;;7.10;;
6665;SDS011;3369;49.906;8.598;2024-01-07T13:06:05;6.90;;;6.20;;
6665;SDS011;3369;49.906;8.598;2024-01-07T13:08:31;7.93;;;7.05;;
6665;SDS011;3369;49.906;8.598;2024-01-07T13:10:58;7.80;;;7.00;;
6665;SDS011;3369;49.906;8.598;2024-01-07T13:13:24;7.72;;;6.93;;
6665;SDS011;3369;49.906;8.598;2024-01-07T13:15:50;6.83;;;5.90;;
6665;SDS011;3369;49.906;8.598;2024-01-07T13:18:16;6.13;;;5.50;;
6665;SDS011;3369;49.906;8.598;2024-01-07T13:20:41;6.57;;;5.95;;
6665;SDS011;3369;49.906;8.598;2024-01-07T13:23:07;6.60;;;6.00;;
6665;SDS011;3369;49.906;8.598;2024-01-07T13:25:33;6.55;;;5.82;;
6665;SDS011;3369;49.906;8.598;2024-01-07T13:27:58;6.60;;;5.85;;
6665;SDS011;3369;49.906;8.598;2024-01-07T13:30:24;7.07;;;6.37;;
6665;SDS011;3369;49.906;8.598;2024-01-07T13:32:50;6.53;;;5.82;;
6665;SDS011;3369;49.906;8.598;2024-01-07T13:35:18;6.53;;;5.75;;
6665;SDS011;3369;49.906;8.598;2024-01-07T13:37:44;6.25;;;5.68;;
6665;SDS011;3369;49.906;8.598;2024-01-07T13:40:11;6.80;;;6.10;;
6665;SDS011;3369;49.906;8.598;2024-01-07T13:42:39;6.95;;;5.97;;
6665;SDS011;3369;49.906;8.598;2024-01-07T13:45:05;7.00;;;6.30;;
6665;SDS011;3369;49.906;8.598;2024-01-07T13:47:30;6.40;;;5.78;;
6665;SDS011;3369;49.906;8.598;2024-01-07T13:49:56;5.93;;;5.38;;
6665;SDS011;3369;49.906;8.598;2024-01-07T13:52:22;6.20;;;5.63;;
6665;SDS011;3369;49.906;8.598;2024-01-07T13:54:48;6.20;;;5.70;;
6665;SDS011;3369;49.906;8.598;2024-01-07T13:57:13;6.40;;;5.80;;
6665;SDS011;3369;49.906;8.598;2024-01-07T13:59:39;7.60;;;6.00;;
6665;SDS011;3369;49.906;8.598;2024-01-07T14:02:06;6.15;;;5.57;;
6665;SDS011;3369;49.906;8.598;2024-01-07T14:04:33;6.80;;;6.10;;
6665;SDS011;3369;49.906;8.598;2024-01-07T14:06:58;6.10;;;5.50;;
6665;SDS011;3369;49.906;8.598;2024-01-07T14:09:24;5.55;;;5.05;;
6665;SDS011;3369;49.906;8.598;2024-01-07T14:11:50;6.28;;;5.43;;
6665;SDS011;3369;49.906;8.598;2024-01-07T14:14:17;6.00;;;5.45;;
6665;SDS011;3369;49.906;8.598;2024-01-07T14:16:44;6.38;;;5.22;;
6665;SDS011;3369;49.906;8.598;2024-01-07T14:19:10;6.10;;;5.50;;
6665;SDS011;3369;49.906;8.598;2024-01-07T14:21:35;6.70;;;5.70;;
6665;SDS011;3369;49.906;8.598;2024-01-07T14:24:01;6.40;;;5.80;;
6665;SDS011;3369;49.906;8.598;2024-01-07T14:26:28;6.03;;;5.43;;
6665;SDS011;3369;49.906;8.598;2024-01-07T14:28:53;7.23;;;5.57;;
6665;SDS011;3369;49.906;8.598;2024-01-07T14:31:19;6.93;;;5.73;;
6665;SDS011;3369;49.906;8.598;2024-01-07T14:33:44;6.60;;;5.90;;
6665;SDS011;3369;49.906;8.598;2024-01-07T14:36:10;5.90;;;5.38;;
6665;SDS011;3369;49.906;8.598;2024-01-07T14:38:44;5.97;;;5.38;;
6665;SDS011;3369;49.906;8.598;2024-01-07T14:41:12;7.40;;;5.45;;
6665;SDS011;3369;49.906;8.598;2024-01-07T14:43:41;6.28;;;5.65;;
6665;SDS011;3369;49.906;8.598;2024-01-07T14:46:07;6.60;;;5.57;;
6665;SDS011;3369;49.906;8.598;2024-01-07T14:48:33;6.80;;;5.77;;
6665;SDS011;3369;49.906;8.598;2024-01-07T14:50:59;7.22;;;6.00;;
6665;SDS011;3369;49.906;8.598;2024-01-07T14:53:25;6.40;;;5.53;;
6665;SDS011;3369;49.906;8.598;2024-01-07T14:55:53;7.07;;;5.80;;
6665;SDS011;3369;49.906;8.598;2024-01-07T14:58:19;7.63;;;5.65;;
6665;SDS011;3369;49.906;8.598;2024-01-07T15:00:46;7.10;;;5.40;;
6665;SDS011;3369;49.906;8.598;2024-01-07T15:03:12;6.00;;;5.13;;
6665;SDS011;3369;49.906;8.598;2024-01-07T15:05:38;5.47;;;4.97;;
6665;SDS011;3369;49.906;8.598;2024-01-07T15:08:06;5.75;;;4.93;;
6665;SDS011;3369;49.906;8.598;2024-01-07T15:10:31;6.20;;;5.35;;
6665;SDS011;3369;49.906;8.598;2024-01-07T15:12:57;5.63;;;5.03;;
6665;SDS011;3369;49.906;8.598;2024-01-07T15:15:23;5.32;;;4.80;;